sensor_id;sensor_type;location;lat;lon;timestamp;pressure;altitude;pressure_sealevel;temperature;humidity
21555;BME280;10938;44.794;-0.676;2023-02-18T00:01:56;102631.44;;;16.44;93.67
21555;BME280;10938;44.794;-0.676;2023-02-18T00:04:21;102634.88;;;16.41;94.10
21555;BME280;10938;44.794;-0.676;2023-02-18T00:06:47;102630.00;;;16.16;97.22
21555;BME280;10938;44.794;-0.676;2023-02-18T00:09:12;102635.25;;;16.16;95.40
21555;BME280;10938;44.794;-0.676;2023-02-18T00:11:38;102631.09;;;16.27;95.14
21555;BME280;10938;44.794;-0.676;2023-02-18T00:14:07;102641.72;;;16.32;93.91
21555;BME280;10938;44.794;-0.676;2023-02-18T00:16:35;102630.22;;;16.28;93.82
21555;BME280;10938;44.794;-0.676;2023-02-18T00:19:03;102624.91;;;16.24;94.38
21555;BME280;10938;44.794;-0.676;2023-02-18T00:21:29;102625.63;;;16.18;96.14
21555;BME280;10938;44.794;-0.676;2023-02-18T00:23:54;102627.41;;;16.18;95.16
21555;BME280;10938;44.794;-0.676;2023-02-18T00:26:20;102622.22;;;16.22;94.94
21555;BME280;10938;44.794;-0.676;2023-02-18T00:28:47;102626.59;;;16.22;93.35
21555;BME280;10938;44.794;-0.676;2023-02-18T00:31:17;102620.25;;;16.12;93.44
21555;BME280;10938;44.794;-0.676;2023-02-18T00:33:43;102616.59;;;16.04;93.34
21555;BME280;10938;44.794;-0.676;2023-02-18T00:36:12;102614.75;;;16.02;93.21
21555;BME280;10938;44.794;-0.676;2023-02-18T00:38:38;102610.31;;;15.98;93.39
21555;BME280;10938;44.794;-0.676;2023-02-18T00:41:04;102613.81;;;15.98;93.28
21555;BME280;10938;44.794;-0.676;2023-02-18T00:43:31;102607.69;;;15.98;93.01
21555;BME280;10938;44.794;-0.676;2023-02-18T00:45:56;102603.75;;;15.77;93.97
21555;BME280;10938;44.794;-0.676;2023-02-18T00:48:21;102602.91;;;15.80;93.67
21555;BME280;10938;44.794;-0.676;2023-02-18T00:50:47;102606.97;;;15.66;93.93
21555;BME280;10938;44.794;-0.676;2023-02-18T00:53:12;102601.72;;;15.66;94.62
21555;BME280;10938;44.794;-0.676;2023-02-18T00:55:42;102598.38;;;15.73;95.21
21555;BME280;10938;44.794;-0.676;2023-02-18T00:58:09;102598.38;;;15.73;94.36
21555;BME280;10938;44.794;-0.676;2023-02-18T01:00:34;102586.94;;;15.71;94.07
21555;BME280;10938;44.794;-0.676;2023-02-18T01:03:00;102584.31;;;15.71;93.70
21555;BME280;10938;44.794;-0.676;2023-02-18T01:05:26;102595.66;;;15.70;94.16
21555;BME280;10938;44.794;-0.676;2023-02-18T01:07:53;102591.81;;;15.54;95.96
21555;BME280;10938;44.794;-0.676;2023-02-18T01:10:18;102595.31;;;15.55;95.68
21555;BME280;10938;44.794;-0.676;2023-02-18T01:12:44;102587.47;;;15.56;94.79
21555;BME280;10938;44.794;-0.676;2023-02-18T01:15:13;102588.28;;;15.54;94.91
21555;BME280;10938;44.794;-0.676;2023-02-18T01:17:39;102576.59;;;15.41;95.14
21555;BME280;10938;44.794;-0.676;2023-02-18T01:20:05;102588.84;;;15.40;95.02
21555;BME280;10938;44.794;-0.676;2023-02-18T01:22:31;102595.56;;;15.29;95.96
21555;BME280;10938;44.794;-0.676;2023-02-18T01:24:56;102584.84;;;15.20;96.76
21555;BME280;10938;44.794;-0.676;2023-02-18T01:27:22;102586.72;;;15.26;95.65
21555;BME280;10938;44.794;-0.676;2023-02-18T01:29:47;102584.84;;;15.20;95.23
21555;BME280;10938;44.794;-0.676;2023-02-18T01:32:13;102586.53;;;15.18;94.84
21555;BME280;10938;44.794;-0.676;2023-02-18T01:34:38;102584.84;;;15.20;94.35
21555;BME280;10938;44.794;-0.676;2023-02-18T01:37:04;102595.28;;;15.17;94.42
21555;BME280;10938;44.794;-0.676;2023-02-18T01:39:30;102587.44;;;15.19;94.39
21555;BME280;10938;44.794;-0.676;2023-02-18T01:41:55;102585.75;;;15.21;93.97
21555;BME280;10938;44.794;-0.676;2023-02-18T01:44:24;102583.97;;;15.21;93.88
21555;BME280;10938;44.794;-0.676;2023-02-18T01:46:50;102588.28;;;15.18;94.25
21555;BME280;10938;44.794;-0.676;2023-02-18T01:49:32;102585.75;;;15.22;93.03
21555;BME280;10938;44.794;-0.676;2023-02-18T01:52:04;102583.75;;;15.12;92.12
21555;BME280;10938;44.794;-0.676;2023-02-18T01:54:34;102583.47;;;15.00;93.59
21555;BME280;10938;44.794;-0.676;2023-02-18T01:57:03;102581.50;;;14.91;94.08
21555;BME280;10938;44.794;-0.676;2023-02-18T01:59:42;102579.66;;;14.87;95.75
21555;BME280;10938;44.794;-0.676;2023-02-18T02:02:12;102575.13;;;14.82;96.54
21555;BME280;10938;44.794;-0.676;2023-02-18T02:04:38;102579.63;;;14.86;97.34
21555;BME280;10938;44.794;-0.676;2023-02-18T02:07:04;102570.00;;;14.86;97.59
21555;BME280;10938;44.794;-0.676;2023-02-18T02:09:30;102583.34;;;14.95;97.01
21555;BME280;10938;44.794;-0.676;2023-02-18T02:34:02;102560.75;;;14.68;94.66
21555;BME280;10938;44.794;-0.676;2023-02-18T02:39:14;102561.41;;;14.58;97.20
21555;BME280;10938;44.794;-0.676;2023-02-18T02:41:51;102565.06;;;14.64;96.55
21555;BME280;10938;44.794;-0.676;2023-02-18T02:44:29;102562.59;;;14.70;95.50
21555;BME280;10938;44.794;-0.676;2023-02-18T02:47:19;102557.41;;;14.73;94.50
21555;BME280;10938;44.794;-0.676;2023-02-18T02:49:55;102563.56;;;14.74;95.11
21555;BME280;10938;44.794;-0.676;2023-02-18T02:52:34;102553.13;;;14.77;94.30
21555;BME280;10938;44.794;-0.676;2023-02-18T02:55:08;102553.97;;;14.76;94.39
21555;BME280;10938;44.794;-0.676;2023-02-18T03:00:01;102551.31;;;14.74;93.52
21555;BME280;10938;44.794;-0.676;2023-02-18T03:10:47;102543.31;;;14.70;95.09
21555;BME280;10938;44.794;-0.676;2023-02-18T03:16:24;102538.63;;;14.58;98.40
21555;BME280;10938;44.794;-0.676;2023-02-18T03:21:28;102530.50;;;14.18;100.00
21555;BME280;10938;44.794;-0.676;2023-02-18T03:24:01;102530.72;;;14.24;100.00
21555;BME280;10938;44.794;-0.676;2023-02-18T03:26:29;102528.19;;;14.28;100.00
21555;BME280;10938;44.794;-0.676;2023-02-18T03:28:59;102524.00;;;14.33;100.00
21555;BME280;10938;44.794;-0.676;2023-02-18T03:31:27;102527.41;;;14.31;100.00
21555;BME280;10938;44.794;-0.676;2023-02-18T03:34:19;102530.06;;;14.32;100.00
21555;BME280;10938;44.794;-0.676;2023-02-18T03:36:47;102529.97;;;14.29;100.00
21555;BME280;10938;44.794;-0.676;2023-02-18T03:39:15;102523.81;;;14.27;100.00
21555;BME280;10938;44.794;-0.676;2023-02-18T03:41:42;102528.09;;;14.25;100.00
21555;BME280;10938;44.794;-0.676;2023-02-18T03:44:09;102521.94;;;14.23;100.00
21555;BME280;10938;44.794;-0.676;2023-02-18T03:46:37;102529.81;;;14.23;100.00
21555;BME280;10938;44.794;-0.676;2023-02-18T03:49:03;102525.47;;;14.25;100.00
21555;BME280;10938;44.794;-0.676;2023-02-18T03:51:29;102520.91;;;14.18;100.00
21555;BME280;10938;44.794;-0.676;2023-02-18T03:53:55;102521.72;;;14.16;100.00
21555;BME280;10938;44.794;-0.676;2023-02-18T03:56:21;102516.63;;;14.20;100.00
21555;BME280;10938;44.794;-0.676;2023-02-18T03:58:46;102513.09;;;14.20;100.00
21555;BME280;10938;44.794;-0.676;2023-02-18T04:01:12;102519.25;;;14.22;100.00
21555;BME280;10938;44.794;-0.676;2023-02-18T04:03:38;102518.38;;;14.21;100.00
21555;BME280;10938;44.794;-0.676;2023-02-18T04:06:04;102517.38;;;14.16;100.00
21555;BME280;10938;44.794;-0.676;2023-02-18T04:08:29;102526.03;;;13.82;100.00
21555;BME280;10938;44.794;-0.676;2023-02-18T04:10:55;102515.91;;;13.65;100.00
21555;BME280;10938;44.794;-0.676;2023-02-18T04:13:21;102514.16;;;13.64;100.00
21555;BME280;10938;44.794;-0.676;2023-02-18T04:15:50;102515.22;;;13.72;100.00
21555;BME280;10938;44.794;-0.676;2023-02-18T04:18:16;102511.03;;;13.77;100.00
21555;BME280;10938;44.794;-0.676;2023-02-18T04:20:42;102507.53;;;13.78;100.00
21555;BME280;10938;44.794;-0.676;2023-02-18T04:23:08;102511.19;;;13.83;100.00
21555;BME280;10938;44.794;-0.676;2023-02-18T04:25:34;102518.03;;;13.78;100.00
21555;BME280;10938;44.794;-0.676;2023-02-18T04:27:59;102508.19;;;13.69;100.00
21555;BME280;10938;44.794;-0.676;2023-02-18T04:30:25;102507.78;;;13.56;100.00
21555;BME280;10938;44.794;-0.676;2023-02-18T04:32:51;102513.56;;;13.44;100.00
21555;BME280;10938;44.794;-0.676;2023-02-18T04:35:16;102514.56;;;13.49;100.00
21555;BME280;10938;44.794;-0.676;2023-02-18T04:37:42;102514.25;;;13.38;100.00
21555;BME280;10938;44.794;-0.676;2023-02-18T04:40:07;102515.66;;;13.27;100.00
21555;BME280;10938;44.794;-0.676;2023-02-18T04:42:33;102512.91;;;13.24;100.00
21555;BME280;10938;44.794;-0.676;2023-02-18T04:44:58;102512.56;;;13.40;100.00
21555;BME280;10938;44.794;-0.676;2023-02-18T04:47:24;102511.69;;;13.40;100.00
21555;BME280;10938;44.794;-0.676;2023-02-18T04:49:50;102514.31;;;13.40;100.00
21555;BME280;10938;44.794;-0.676;2023-02-18T04:52:15;102518.91;;;13.49;100.00
21555;BME280;10938;44.794;-0.676;2023-02-18T04:54:40;102518.88;;;13.47;100.00
21555;BME280;10938;44.794;-0.676;2023-02-18T04:57:06;102511.03;;;13.47;100.00
21555;BME280;10938;44.794;-0.676;2023-02-18T04:59:31;102508.34;;;13.46;100.00
21555;BME280;10938;44.794;-0.676;2023-02-18T05:01:57;102509.19;;;13.45;100.00
21555;BME280;10938;44.794;-0.676;2023-02-18T05:04:22;102511.06;;;13.49;100.00
21555;BME280;10938;44.794;-0.676;2023-02-18T05:06:48;102511.91;;;13.48;100.00
21555;BME280;10938;44.794;-0.676;2023-02-18T05:09:13;102510.06;;;13.45;100.00
21555;BME280;10938;44.794;-0.676;2023-02-18T05:11:39;102517.91;;;13.44;100.00
21555;BME280;10938;44.794;-0.676;2023-02-18T05:14:05;102512.50;;;13.37;100.00
21555;BME280;10938;44.794;-0.676;2023-02-18T05:16:30;102518.41;;;13.32;100.00
21555;BME280;10938;44.794;-0.676;2023-02-18T05:18:56;102511.63;;;13.38;99.20
21555;BME280;10938;44.794;-0.676;2023-02-18T05:21:21;102527.31;;;13.37;98.85
21555;BME280;10938;44.794;-0.676;2023-02-18T05:23:47;102529.22;;;13.43;98.51
21555;BME280;10938;44.794;-0.676;2023-02-18T05:26:13;102520.47;;;13.42;98.46
21555;BME280;10938;44.794;-0.676;2023-02-18T05:28:39;102529.13;;;13.39;97.96
21555;BME280;10938;44.794;-0.676;2023-02-18T05:31:04;102527.25;;;13.35;98.32
21555;BME280;10938;44.794;-0.676;2023-02-18T05:33:30;102527.31;;;13.37;97.10
21555;BME280;10938;44.794;-0.676;2023-02-18T05:35:55;102521.19;;;13.36;96.86
21555;BME280;10938;44.794;-0.676;2023-02-18T05:38:21;102522.00;;;13.35;96.48
21555;BME280;10938;44.794;-0.676;2023-02-18T05:40:46;102519.75;;;13.19;97.92
21555;BME280;10938;44.794;-0.676;2023-02-18T05:43:12;102516.97;;;13.13;97.80
21555;BME280;10938;44.794;-0.676;2023-02-18T05:45:38;102524.44;;;13.03;98.21
21555;BME280;10938;44.794;-0.676;2023-02-18T05:48:04;102521.56;;;13.20;97.17
21555;BME280;10938;44.794;-0.676;2023-02-18T05:50:29;102521.34;;;13.14;96.09
21555;BME280;10938;44.794;-0.676;2023-02-18T05:52:55;102517.94;;;13.17;96.15
21555;BME280;10938;44.794;-0.676;2023-02-18T05:55:21;102514.03;;;13.04;96.84
21555;BME280;10938;44.794;-0.676;2023-02-18T05:57:46;102504.31;;;13.02;97.05
21555;BME280;10938;44.794;-0.676;2023-02-18T06:00:12;102507.84;;;13.02;97.02
21555;BME280;10938;44.794;-0.676;2023-02-18T06:02:37;102511.63;;;13.10;96.62
21555;BME280;10938;44.794;-0.676;2023-02-18T06:05:04;102518.41;;;13.05;97.12
21555;BME280;10938;44.794;-0.676;2023-02-18T06:07:29;102512.25;;;13.03;97.20
21555;BME280;10938;44.794;-0.676;2023-02-18T06:09:55;102512.25;;;13.03;97.06
21555;BME280;10938;44.794;-0.676;2023-02-18T06:12:21;102512.47;;;13.09;96.39
21555;BME280;10938;44.794;-0.676;2023-02-18T06:14:46;102517.56;;;13.06;96.74
21555;BME280;10938;44.794;-0.676;2023-02-18T06:17:12;102522.81;;;13.06;96.94
21555;BME280;10938;44.794;-0.676;2023-02-18T06:19:38;102509.56;;;13.02;96.84
21555;BME280;10938;44.794;-0.676;2023-02-18T06:22:04;102517.28;;;12.97;97.31
21555;BME280;10938;44.794;-0.676;2023-02-18T06:24:30;102514.44;;;12.91;97.33
21555;BME280;10938;44.794;-0.676;2023-02-18T06:26:55;102515.41;;;12.93;96.34
21555;BME280;10938;44.794;-0.676;2023-02-18T06:29:20;102510.06;;;12.90;97.14
21555;BME280;10938;44.794;-0.676;2023-02-18T06:31:46;102514.59;;;12.69;98.45
21555;BME280;10938;44.794;-0.676;2023-02-18T06:34:12;102511.88;;;12.66;99.07
21555;BME280;10938;44.794;-0.676;2023-02-18T06:36:37;102512.81;;;12.68;98.69
21555;BME280;10938;44.794;-0.676;2023-02-18T06:39:04;102518.31;;;12.75;98.21
21555;BME280;10938;44.794;-0.676;2023-02-18T06:41:30;102514.69;;;12.72;97.84
21555;BME280;10938;44.794;-0.676;2023-02-18T06:43:55;102512.03;;;12.70;97.35
21555;BME280;10938;44.794;-0.676;2023-02-18T06:46:23;102514.66;;;12.70;97.08
21555;BME280;10938;44.794;-0.676;2023-02-18T06:48:48;102518.28;;;12.74;96.89
21555;BME280;10938;44.794;-0.676;2023-02-18T06:51:14;102513.13;;;12.77;96.03
21555;BME280;10938;44.794;-0.676;2023-02-18T06:53:44;102522.63;;;12.73;96.06
21555;BME280;10938;44.794;-0.676;2023-02-18T06:56:10;102514.03;;;12.77;96.02
21555;BME280;10938;44.794;-0.676;2023-02-18T06:58:36;102520.19;;;12.79;95.37
21555;BME280;10938;44.794;-0.676;2023-02-18T07:01:02;102525.06;;;12.69;93.03
21555;BME280;10938;44.794;-0.676;2023-02-18T07:03:28;102529.41;;;12.68;93.23
21555;BME280;10938;44.794;-0.676;2023-02-18T07:05:53;102532.09;;;12.70;92.78
21555;BME280;10938;44.794;-0.676;2023-02-18T07:08:19;102533.13;;;12.75;94.68
21555;BME280;10938;44.794;-0.676;2023-02-18T07:10:44;102537.91;;;12.88;94.14
21555;BME280;10938;44.794;-0.676;2023-02-18T07:13:11;102546.81;;;12.93;93.97
21555;BME280;10938;44.794;-0.676;2023-02-18T07:15:36;102540.50;;;12.86;94.21
21555;BME280;10938;44.794;-0.676;2023-02-18T07:18:01;102537.53;;;12.76;95.54
21555;BME280;10938;44.794;-0.676;2023-02-18T07:20:27;102543.69;;;12.78;95.22
21555;BME280;10938;44.794;-0.676;2023-02-18T07:22:53;102543.03;;;12.85;94.97
21555;BME280;10938;44.794;-0.676;2023-02-18T07:25:19;102546.13;;;12.99;94.33
21555;BME280;10938;44.794;-0.676;2023-02-18T07:27:45;102540.16;;;13.29;93.97
21555;BME280;10938;44.794;-0.676;2023-02-18T07:30:11;102550.19;;;13.71;93.78
21555;BME280;10938;44.794;-0.676;2023-02-18T07:32:37;102553.25;;;14.49;90.43
21555;BME280;10938;44.794;-0.676;2023-02-18T07:35:04;102548.28;;;15.29;87.17
21555;BME280;10938;44.794;-0.676;2023-02-18T07:37:30;102546.84;;;15.43;86.60
21555;BME280;10938;44.794;-0.676;2023-02-18T07:39:55;102547.06;;;15.15;86.45
21555;BME280;10938;44.794;-0.676;2023-02-18T07:42:21;102544.31;;;14.75;90.16
21555;BME280;10938;44.794;-0.676;2023-02-18T07:44:46;102537.47;;;15.53;88.95
21555;BME280;10938;44.794;-0.676;2023-02-18T07:47:14;102545.72;;;16.58;84.77
21555;BME280;10938;44.794;-0.676;2023-02-18T07:49:39;102542.53;;;17.33;82.82
21555;BME280;10938;44.794;-0.676;2023-02-18T07:52:05;102549.22;;;18.45;78.48
21555;BME280;10938;44.794;-0.676;2023-02-18T07:54:30;102539.56;;;19.56;74.90
21555;BME280;10938;44.794;-0.676;2023-02-18T07:56:56;102541.53;;;20.02;73.45
21555;BME280;10938;44.794;-0.676;2023-02-18T07:59:21;102547.88;;;20.80;70.79
21555;BME280;10938;44.794;-0.676;2023-02-18T08:01:47;102549.19;;;22.38;65.77
21555;BME280;10938;44.794;-0.676;2023-02-18T08:04:12;102553.72;;;23.41;62.45
21555;BME280;10938;44.794;-0.676;2023-02-18T08:06:44;102561.94;;;21.67;65.91
21555;BME280;10938;44.794;-0.676;2023-02-18T08:09:11;102557.56;;;20.43;69.75
21555;BME280;10938;44.794;-0.676;2023-02-18T08:11:37;102557.34;;;19.85;74.53
21555;BME280;10938;44.794;-0.676;2023-02-18T08:14:03;102556.44;;;19.71;75.90
21555;BME280;10938;44.794;-0.676;2023-02-18T08:16:29;102552.81;;;19.59;78.05
21555;BME280;10938;44.794;-0.676;2023-02-18T08:18:54;102553.41;;;19.17;79.52
21555;BME280;10938;44.794;-0.676;2023-02-18T08:21:21;102554.34;;;19.23;79.15
21555;BME280;10938;44.794;-0.676;2023-02-18T08:23:48;102550.84;;;19.32;78.99
21555;BME280;10938;44.794;-0.676;2023-02-18T08:26:14;102554.31;;;19.22;79.57
21555;BME280;10938;44.794;-0.676;2023-02-18T08:28:39;102555.13;;;19.10;79.09
21555;BME280;10938;44.794;-0.676;2023-02-18T08:31:05;102560.19;;;18.83;80.32
21555;BME280;10938;44.794;-0.676;2023-02-18T08:37:05;102561.91;;;17.98;84.29
21555;BME280;10938;44.794;-0.676;2023-02-18T08:47:16;102542.88;;;16.97;91.49
21555;BME280;10938;44.794;-0.676;2023-02-18T08:49:44;102554.31;;;16.97;91.91
21555;BME280;10938;44.794;-0.676;2023-02-18T08:52:10;102554.53;;;17.13;92.28
21555;BME280;10938;44.794;-0.676;2023-02-18T08:54:35;102559.75;;;17.10;92.74
21555;BME280;10938;44.794;-0.676;2023-02-18T09:00:40;102553.91;;;17.29;94.62
21555;BME280;10938;44.794;-0.676;2023-02-18T09:06:51;102554.66;;;18.59;87.88
21555;BME280;10938;44.794;-0.676;2023-02-18T09:09:17;102559.31;;;18.81;86.49
21555;BME280;10938;44.794;-0.676;2023-02-18T09:11:43;102570.25;;;18.34;88.36
21555;BME280;10938;44.794;-0.676;2023-02-18T09:14:09;102563.59;;;17.93;90.71
21555;BME280;10938;44.794;-0.676;2023-02-18T09:16:35;102562.78;;;17.98;90.97
21555;BME280;10938;44.794;-0.676;2023-02-18T09:19:03;102563.66;;;18.76;87.67
21555;BME280;10938;44.794;-0.676;2023-02-18T09:21:38;102575.28;;;18.96;86.40
21555;BME280;10938;44.794;-0.676;2023-02-18T09:24:06;102576.00;;;18.78;86.85
21555;BME280;10938;44.794;-0.676;2023-02-18T09:26:35;102577.13;;;18.20;90.09
21555;BME280;10938;44.794;-0.676;2023-02-18T09:29:01;102571.16;;;18.36;90.38
21555;BME280;10938;44.794;-0.676;2023-02-18T09:31:36;102566.53;;;19.06;88.36
21555;BME280;10938;44.794;-0.676;2023-02-18T09:34:04;102571.31;;;19.56;85.05
21555;BME280;10938;44.794;-0.676;2023-02-18T09:36:32;102573.94;;;19.51;84.30
21555;BME280;10938;44.794;-0.676;2023-02-18T09:38:58;102570.44;;;19.53;84.95
21555;BME280;10938;44.794;-0.676;2023-02-18T09:41:44;102580.09;;;19.48;84.18
21555;BME280;10938;44.794;-0.676;2023-02-18T09:44:23;102570.44;;;19.53;84.62
21555;BME280;10938;44.794;-0.676;2023-02-18T09:47:02;102583.38;;;19.19;86.49
21555;BME280;10938;44.794;-0.676;2023-02-18T09:49:35;102580.19;;;19.65;83.54
21555;BME280;10938;44.794;-0.676;2023-02-18T09:52:28;102579.28;;;19.62;84.58
21555;BME280;10938;44.794;-0.676;2023-02-18T09:58:26;102578.50;;;19.76;84.50
21555;BME280;10938;44.794;-0.676;2023-02-18T10:01:15;102573.81;;;19.36;85.60
21555;BME280;10938;44.794;-0.676;2023-02-18T10:03:43;102572.03;;;19.33;86.83
21555;BME280;10938;44.794;-0.676;2023-02-18T10:06:21;102568.88;;;20.02;83.75
21555;BME280;10938;44.794;-0.676;2023-02-18T10:12:26;102566.94;;;19.61;84.69
21555;BME280;10938;44.794;-0.676;2023-02-18T10:14:54;102573.38;;;20.14;82.85
21555;BME280;10938;44.794;-0.676;2023-02-18T10:17:22;102568.91;;;20.04;83.76
21555;BME280;10938;44.794;-0.676;2023-02-18T10:19:52;102573.22;;;19.85;84.46
21555;BME280;10938;44.794;-0.676;2023-02-18T10:22:31;102572.38;;;19.88;83.67
21555;BME280;10938;44.794;-0.676;2023-02-18T10:25:02;102569.03;;;20.40;81.10
21555;BME280;10938;44.794;-0.676;2023-02-18T10:27:31;102573.38;;;20.23;81.69
21555;BME280;10938;44.794;-0.676;2023-02-18T10:30:34;102572.59;;;20.59;80.07
21555;BME280;10938;44.794;-0.676;2023-02-18T10:36:23;102567.19;;;20.26;82.49
21555;BME280;10938;44.794;-0.676;2023-02-18T10:50:34;102561.94;;;21.64;76.81
21555;BME280;10938;44.794;-0.676;2023-02-18T10:53:11;102558.53;;;21.15;76.92
21555;BME280;10938;44.794;-0.676;2023-02-18T10:55:43;102559.34;;;20.82;77.16
21555;BME280;10938;44.794;-0.676;2023-02-18T11:00:56;102554.81;;;20.08;81.07
21555;BME280;10938;44.794;-0.676;2023-02-18T11:03:24;102551.38;;;21.44;78.70
21555;BME280;10938;44.794;-0.676;2023-02-18T11:05:54;102558.38;;;21.74;74.94
21555;BME280;10938;44.794;-0.676;2023-02-18T11:08:23;102564.34;;;22.27;73.48
21555;BME280;10938;44.794;-0.676;2023-02-18T11:10:50;102563.47;;;22.28;73.02
21555;BME280;10938;44.794;-0.676;2023-02-18T11:13:26;102554.91;;;21.38;75.95
21555;BME280;10938;44.794;-0.676;2023-02-18T11:21:02;102558.38;;;21.62;75.26
21555;BME280;10938;44.794;-0.676;2023-02-18T11:23:28;102549.63;;;21.40;75.19
21555;BME280;10938;44.794;-0.676;2023-02-18T11:28:48;102551.19;;;22.04;73.20
21555;BME280;10938;44.794;-0.676;2023-02-18T11:31:21;102545.00;;;21.89;73.77
21555;BME280;10938;44.794;-0.676;2023-02-18T11:33:50;102535.50;;;20.94;76.24
21555;BME280;10938;44.794;-0.676;2023-02-18T11:36:29;102538.59;;;22.35;71.81
21555;BME280;10938;44.794;-0.676;2023-02-18T11:39:00;102538.59;;;22.32;71.78
21555;BME280;10938;44.794;-0.676;2023-02-18T11:41:36;102542.41;;;21.90;73.20
21555;BME280;10938;44.794;-0.676;2023-02-18T11:44:04;102536.34;;;21.37;72.40
21555;BME280;10938;44.794;-0.676;2023-02-18T11:46:30;102532.44;;;22.29;70.95
21555;BME280;10938;44.794;-0.676;2023-02-18T11:49:10;102533.38;;;22.19;70.07
21555;BME280;10938;44.794;-0.676;2023-02-18T11:51:46;102525.50;;;22.02;70.71
21555;BME280;10938;44.794;-0.676;2023-02-18T11:54:29;102525.38;;;22.26;70.28
21555;BME280;10938;44.794;-0.676;2023-02-18T11:56:59;102514.66;;;22.41;67.90
21555;BME280;10938;44.794;-0.676;2023-02-18T11:59:26;102509.44;;;22.22;70.33
21555;BME280;10938;44.794;-0.676;2023-02-18T12:05:04;102491.94;;;21.95;73.07
21555;BME280;10938;44.794;-0.676;2023-02-18T12:10:27;102483.38;;;22.74;68.85
21555;BME280;10938;44.794;-0.676;2023-02-18T12:13:27;102483.50;;;22.55;69.41
21555;BME280;10938;44.794;-0.676;2023-02-18T12:30:25;102459.59;;;22.54;69.19
21555;BME280;10938;44.794;-0.676;2023-02-18T12:51:57;102426.88;;;22.47;67.44
21555;BME280;10938;44.794;-0.676;2023-02-18T12:57:42;102419.41;;;21.78;70.90
21555;BME280;10938;44.794;-0.676;2023-02-18T13:09:08;102408.78;;;22.86;67.80
21555;BME280;10938;44.794;-0.676;2023-02-18T13:11:48;102405.56;;;22.49;68.62
21555;BME280;10938;44.794;-0.676;2023-02-18T13:14:32;102402.19;;;23.22;66.62
21555;BME280;10938;44.794;-0.676;2023-02-18T13:17:02;102390.28;;;24.09;63.91
21555;BME280;10938;44.794;-0.676;2023-02-18T13:19:36;102398.91;;;24.28;63.75
21555;BME280;10938;44.794;-0.676;2023-02-18T13:22:09;102393.44;;;23.78;63.45
21555;BME280;10938;44.794;-0.676;2023-02-18T13:24:39;102396.34;;;22.91;67.10
21555;BME280;10938;44.794;-0.676;2023-02-18T13:30:01;102384.31;;;23.92;64.68
21555;BME280;10938;44.794;-0.676;2023-02-18T13:35:21;102376.53;;;23.80;63.83
21555;BME280;10938;44.794;-0.676;2023-02-18T13:40:35;102372.97;;;23.16;65.88
21555;BME280;10938;44.794;-0.676;2023-02-18T13:43:18;102368.25;;;23.40;67.04
21555;BME280;10938;44.794;-0.676;2023-02-18T13:51:57;102362.31;;;23.16;68.20
21555;BME280;10938;44.794;-0.676;2023-02-18T13:54:51;102357.03;;;23.14;68.35
21555;BME280;10938;44.794;-0.676;2023-02-18T13:57:33;102337.56;;;23.09;68.04
21555;BME280;10938;44.794;-0.676;2023-02-18T14:00:24;102358.44;;;23.39;66.43
21555;BME280;10938;44.794;-0.676;2023-02-18T14:08:50;102333.75;;;23.91;64.88
21555;BME280;10938;44.794;-0.676;2023-02-18T14:22:54;102323.47;;;23.02;70.82
21555;BME280;10938;44.794;-0.676;2023-02-18T14:28:36;102314.50;;;23.72;69.20
21555;BME280;10938;44.794;-0.676;2023-02-18T14:34:23;102311.25;;;23.55;68.68
21555;BME280;10938;44.794;-0.676;2023-02-18T14:37:23;102308.78;;;23.96;67.47
21555;BME280;10938;44.794;-0.676;2023-02-18T14:50:48;102287.59;;;23.89;67.78
21555;BME280;10938;44.794;-0.676;2023-02-18T14:53:22;102289.00;;;24.11;67.25
21555;BME280;10938;44.794;-0.676;2023-02-18T14:55:50;102283.00;;;23.43;69.51
21555;BME280;10938;44.794;-0.676;2023-02-18T15:00:50;102290.72;;;23.60;67.28
21555;BME280;10938;44.794;-0.676;2023-02-18T15:03:18;102291.63;;;23.59;67.73
21555;BME280;10938;44.794;-0.676;2023-02-18T15:05:45;102291.97;;;23.93;67.18
21555;BME280;10938;44.794;-0.676;2023-02-18T15:10:45;102289.63;;;24.25;65.70
21555;BME280;10938;44.794;-0.676;2023-02-18T15:13:23;102285.13;;;24.75;64.01
21555;BME280;10938;44.794;-0.676;2023-02-18T15:15:54;102277.84;;;24.38;65.27
21555;BME280;10938;44.794;-0.676;2023-02-18T15:18:51;102275.38;;;23.76;66.83
21555;BME280;10938;44.794;-0.676;2023-02-18T15:21:52;102272.09;;;24.12;66.49
21555;BME280;10938;44.794;-0.676;2023-02-18T15:24:30;102273.75;;;23.66;66.66
21555;BME280;10938;44.794;-0.676;2023-02-18T15:27:02;102269.81;;;23.34;67.36
21555;BME280;10938;44.794;-0.676;2023-02-18T15:29:32;102264.78;;;23.73;65.89
21555;BME280;10938;44.794;-0.676;2023-02-18T15:31:58;102261.69;;;23.45;67.54
21555;BME280;10938;44.794;-0.676;2023-02-18T15:36:53;102258.28;;;23.89;65.88
21555;BME280;10938;44.794;-0.676;2023-02-18T15:39:19;102259.03;;;23.43;66.61
21555;BME280;10938;44.794;-0.676;2023-02-18T15:41:46;102263.81;;;23.20;67.49
21555;BME280;10938;44.794;-0.676;2023-02-18T15:44:18;102254.63;;;23.39;67.87
21555;BME280;10938;44.794;-0.676;2023-02-18T15:46:48;102258.31;;;22.64;69.47
21555;BME280;10938;44.794;-0.676;2023-02-18T15:49:15;102250.44;;;22.56;70.29
21555;BME280;10938;44.794;-0.676;2023-02-18T15:51:43;102265.06;;;22.92;69.28
21555;BME280;10938;44.794;-0.676;2023-02-18T15:54:17;102259.84;;;22.87;69.61
21555;BME280;10938;44.794;-0.676;2023-02-18T15:56:45;102250.53;;;23.17;68.75
21555;BME280;10938;44.794;-0.676;2023-02-18T15:59:24;102253.28;;;23.71;65.87
21555;BME280;10938;44.794;-0.676;2023-02-18T16:01:53;102255.44;;;22.85;68.66
21555;BME280;10938;44.794;-0.676;2023-02-18T16:04:23;102255.22;;;22.98;68.31
21555;BME280;10938;44.794;-0.676;2023-02-18T16:06:56;102248.31;;;22.87;69.59
21555;BME280;10938;44.794;-0.676;2023-02-18T16:09:26;102259.03;;;23.43;67.01